sensor_id;sensor_type;location;lat;lon;timestamp;P1;durP1;ratioP1;P2;durP2;ratioP2
54897;SDS011;40800;52.704;6.398;2023-10-09T00:01:06;16.60;;;15.00;;
54897;SDS011;40800;52.704;6.398;2023-10-09T00:03:42;16.58;;;14.98;;
54897;SDS011;40800;52.704;6.398;2023-10-09T00:06:08;17.67;;;15.85;;
54897;SDS011;40800;52.704;6.398;2023-10-09T00:08:41;17.50;;;15.98;;
54897;SDS011;40800;52.704;6.398;2023-10-09T00:11:14;18.10;;;16.27;;
54897;SDS011;40800;52.704;6.398;2023-10-09T00:13:44;19.13;;;17.42;;
54897;SDS011;40800;52.704;6.398;2023-10-09T00:16:18;23.02;;;17.25;;
54897;SDS011;40800;52.704;6.398;2023-10-09T00:19:08;18.88;;;17.15;;
54897;SDS011;40800;52.704;6.398;2023-10-09T00:21:46;19.52;;;17.80;;
54897;SDS011;40800;52.704;6.398;2023-10-09T00:24:12;20.60;;;18.70;;
54897;SDS011;40800;52.704;6.398;2023-10-09T00:26:47;20.45;;;18.55;;
54897;SDS011;40800;52.704;6.398;2023-10-09T00:29:14;20.17;;;18.25;;
54897;SDS011;40800;52.704;6.398;2023-10-09T00:31:46;19.25;;;17.33;;
54897;SDS011;40800;52.704;6.398;2023-10-09T00:34:16;20.75;;;18.73;;
54897;SDS011;40800;52.704;6.398;2023-10-09T00:36:46;20.38;;;18.35;;
54897;SDS011;40800;52.704;6.398;2023-10-09T00:39:19;21.08;;;18.98;;
54897;SDS011;40800;52.704;6.398;2023-10-09T00:41:59;20.38;;;18.50;;
54897;SDS011;40800;52.704;6.398;2023-10-09T00:44:26;20.88;;;18.77;;
54897;SDS011;40800;52.704;6.398;2023-10-09T00:47:03;22.58;;;20.30;;
54897;SDS011;40800;52.704;6.398;2023-10-09T00:49:51;23.80;;;21.50;;
54897;SDS011;40800;52.704;6.398;2023-10-09T00:52:25;23.30;;;20.98;;
54897;SDS011;40800;52.704;6.398;2023-10-09T00:55:04;23.83;;;21.55;;
54897;SDS011;40800;52.704;6.398;2023-10-09T00:57:55;25.75;;;22.95;;
54897;SDS011;40800;52.704;6.398;2023-10-09T01:00:22;25.63;;;23.02;;
54897;SDS011;40800;52.704;6.398;2023-10-09T01:03:01;24.83;;;22.33;;
54897;SDS011;40800;52.704;6.398;2023-10-09T01:05:44;25.80;;;23.13;;
54897;SDS011;40800;52.704;6.398;2023-10-09T01:08:18;26.17;;;23.50;;
54897;SDS011;40800;52.704;6.398;2023-10-09T01:10:55;26.48;;;23.98;;
54897;SDS011;40800;52.704;6.398;2023-10-09T01:13:24;29.00;;;24.45;;
54897;SDS011;40800;52.704;6.398;2023-10-09T01:16:04;27.30;;;24.38;;
54897;SDS011;40800;52.704;6.398;2023-10-09T01:18:30;26.70;;;24.00;;
54897;SDS011;40800;52.704;6.398;2023-10-09T01:21:01;29.00;;;25.95;;
54897;SDS011;40800;52.704;6.398;2023-10-09T01:23:28;32.05;;;25.80;;
54897;SDS011;40800;52.704;6.398;2023-10-09T01:25:54;29.63;;;26.58;;
54897;SDS011;40800;52.704;6.398;2023-10-09T01:28:20;30.38;;;27.35;;
54897;SDS011;40800;52.704;6.398;2023-10-09T01:30:46;32.17;;;27.00;;
54897;SDS011;40800;52.704;6.398;2023-10-09T01:33:13;36.85;;;28.73;;
54897;SDS011;40800;52.704;6.398;2023-10-09T01:35:49;32.17;;;28.38;;
54897;SDS011;40800;52.704;6.398;2023-10-09T01:38:19;32.05;;;28.27;;
54897;SDS011;40800;52.704;6.398;2023-10-09T01:40:55;33.55;;;30.00;;
54897;SDS011;40800;52.704;6.398;2023-10-09T01:43:28;37.55;;;31.02;;
54897;SDS011;40800;52.704;6.398;2023-10-09T01:45:54;35.13;;;31.13;;
54897;SDS011;40800;52.704;6.398;2023-10-09T01:48:20;37.50;;;31.85;;
54897;SDS011;40800;52.704;6.398;2023-10-09T01:50:49;36.33;;;31.48;;
54897;SDS011;40800;52.704;6.398;2023-10-09T01:53:14;38.15;;;31.98;;
54897;SDS011;40800;52.704;6.398;2023-10-09T01:55:43;37.78;;;31.73;;
54897;SDS011;40800;52.704;6.398;2023-10-09T01:58:10;41.35;;;33.42;;
54897;SDS011;40800;52.704;6.398;2023-10-09T02:00:48;45.72;;;35.53;;
54897;SDS011;40800;52.704;6.398;2023-10-09T02:03:15;45.20;;;37.17;;
54897;SDS011;40800;52.704;6.398;2023-10-09T02:05:43;51.17;;;38.38;;
54897;SDS011;40800;52.704;6.398;2023-10-09T02:08:09;46.97;;;37.72;;
54897;SDS011;40800;52.704;6.398;2023-10-09T02:10:38;49.13;;;37.88;;
54897;SDS011;40800;52.704;6.398;2023-10-09T02:13:12;49.53;;;37.83;;
54897;SDS011;40800;52.704;6.398;2023-10-09T02:15:42;53.47;;;40.88;;
54897;SDS011;40800;52.704;6.398;2023-10-09T02:18:11;49.13;;;38.80;;
54897;SDS011;40800;52.704;6.398;2023-10-09T02:20:48;51.28;;;39.00;;
54897;SDS011;40800;52.704;6.398;2023-10-09T02:23:26;51.42;;;39.60;;
54897;SDS011;40800;52.704;6.398;2023-10-09T02:26:16;47.35;;;38.90;;
54897;SDS011;40800;52.704;6.398;2023-10-09T02:28:59;48.70;;;38.50;;
54897;SDS011;40800;52.704;6.398;2023-10-09T02:31:25;48.50;;;39.67;;
54897;SDS011;40800;52.704;6.398;2023-10-09T02:34:00;53.88;;;41.38;;
54897;SDS011;40800;52.704;6.398;2023-10-09T02:36:30;51.00;;;40.90;;
54897;SDS011;40800;52.704;6.398;2023-10-09T02:38:55;53.95;;;41.97;;
54897;SDS011;40800;52.704;6.398;2023-10-09T02:41:21;59.85;;;43.55;;
54897;SDS011;40800;52.704;6.398;2023-10-09T02:43:53;61.53;;;45.03;;
54897;SDS011;40800;52.704;6.398;2023-10-09T02:46:20;62.42;;;45.00;;
54897;SDS011;40800;52.704;6.398;2023-10-09T02:48:54;62.53;;;46.72;;
54897;SDS011;40800;52.704;6.398;2023-10-09T02:51:23;63.03;;;45.92;;
54897;SDS011;40800;52.704;6.398;2023-10-09T02:56:20;61.70;;;46.85;;
54897;SDS011;40800;52.704;6.398;2023-10-09T02:58:52;70.35;;;49.55;;
54897;SDS011;40800;52.704;6.398;2023-10-09T03:01:19;67.68;;;49.08;;
54897;SDS011;40800;52.704;6.398;2023-10-09T03:03:44;69.18;;;48.63;;
54897;SDS011;40800;52.704;6.398;2023-10-09T03:06:11;71.40;;;51.92;;
54897;SDS011;40800;52.704;6.398;2023-10-09T03:08:37;72.78;;;50.80;;
54897;SDS011;40800;52.704;6.398;2023-10-09T03:11:06;79.18;;;53.17;;
54897;SDS011;40800;52.704;6.398;2023-10-09T03:13:39;71.78;;;51.35;;
54897;SDS011;40800;52.704;6.398;2023-10-09T03:16:08;76.45;;;52.28;;
54897;SDS011;40800;52.704;6.398;2023-10-09T03:18:39;77.93;;;53.95;;
54897;SDS011;40800;52.704;6.398;2023-10-09T03:21:05;79.47;;;56.35;;
54897;SDS011;40800;52.704;6.398;2023-10-09T03:23:31;72.77;;;53.57;;
54897;SDS011;40800;52.704;6.398;2023-10-09T03:25:59;72.20;;;53.35;;
54897;SDS011;40800;52.704;6.398;2023-10-09T03:28:24;71.20;;;54.67;;
54897;SDS011;40800;52.704;6.398;2023-10-09T03:30:50;70.97;;;54.92;;
54897;SDS011;40800;52.704;6.398;2023-10-09T03:33:16;70.93;;;55.28;;
54897;SDS011;40800;52.704;6.398;2023-10-09T03:35:42;70.30;;;55.65;;
54897;SDS011;40800;52.704;6.398;2023-10-09T03:38:08;72.18;;;56.35;;
54897;SDS011;40800;52.704;6.398;2023-10-09T03:40:44;66.45;;;54.20;;
54897;SDS011;40800;52.704;6.398;2023-10-09T03:43:13;70.43;;;56.13;;
54897;SDS011;40800;52.704;6.398;2023-10-09T03:45:39;74.72;;;56.47;;
54897;SDS011;40800;52.704;6.398;2023-10-09T03:50:48;69.15;;;55.45;;
54897;SDS011;40800;52.704;6.398;2023-10-09T03:53:31;65.55;;;54.03;;
54897;SDS011;40800;52.704;6.398;2023-10-09T03:55:56;67.13;;;53.20;;
54897;SDS011;40800;52.704;6.398;2023-10-09T03:58:23;66.70;;;54.67;;
54897;SDS011;40800;52.704;6.398;2023-10-09T04:00:50;62.42;;;52.15;;
54897;SDS011;40800;52.704;6.398;2023-10-09T04:03:16;64.33;;;51.93;;
54897;SDS011;40800;52.704;6.398;2023-10-09T04:05:42;63.38;;;50.15;;
54897;SDS011;40800;52.704;6.398;2023-10-09T04:08:12;67.25;;;52.88;;
54897;SDS011;40800;52.704;6.398;2023-10-09T04:10:53;58.63;;;50.75;;
54897;SDS011;40800;52.704;6.398;2023-10-09T04:13:26;64.03;;;51.83;;
54897;SDS011;40800;52.704;6.398;2023-10-09T04:15:58;65.80;;;53.40;;
54897;SDS011;40800;52.704;6.398;2023-10-09T04:18:34;66.32;;;52.97;;
54897;SDS011;40800;52.704;6.398;2023-10-09T04:21:03;58.70;;;51.05;;
54897;SDS011;40800;52.704;6.398;2023-10-09T04:23:55;65.93;;;53.28;;
54897;SDS011;40800;52.704;6.398;2023-10-09T04:26:39;59.17;;;50.28;;
54897;SDS011;40800;52.704;6.398;2023-10-09T04:29:14;59.80;;;49.47;;
54897;SDS011;40800;52.704;6.398;2023-10-09T04:31:51;62.08;;;51.00;;
54897;SDS011;40800;52.704;6.398;2023-10-09T04:34:18;56.28;;;50.15;;
54897;SDS011;40800;52.704;6.398;2023-10-09T04:36:47;54.40;;;48.35;;
54897;SDS011;40800;52.704;6.398;2023-10-09T04:39:21;53.50;;;47.83;;
54897;SDS011;40800;52.704;6.398;2023-10-09T04:41:56;56.50;;;48.90;;
54897;SDS011;40800;52.704;6.398;2023-10-09T04:44:41;53.85;;;48.03;;
54897;SDS011;40800;52.704;6.398;2023-10-09T04:47:29;57.63;;;48.92;;
54897;SDS011;40800;52.704;6.398;2023-10-09T04:50:10;54.65;;;48.75;;
54897;SDS011;40800;52.704;6.398;2023-10-09T04:52:40;55.72;;;49.65;;
54897;SDS011;40800;52.704;6.398;2023-10-09T04:55:06;53.65;;;47.88;;
54897;SDS011;40800;52.704;6.398;2023-10-09T04:57:36;56.83;;;47.35;;
54897;SDS011;40800;52.704;6.398;2023-10-09T05:00:08;51.92;;;46.55;;
54897;SDS011;40800;52.704;6.398;2023-10-09T05:03:07;52.55;;;46.95;;
54897;SDS011;40800;52.704;6.398;2023-10-09T05:05:37;50.47;;;45.15;;
54897;SDS011;40800;52.704;6.398;2023-10-09T05:08:07;51.17;;;45.90;;
54897;SDS011;40800;52.704;6.398;2023-10-09T05:10:46;50.58;;;45.38;;
54897;SDS011;40800;52.704;6.398;2023-10-09T05:16:04;49.60;;;43.58;;
54897;SDS011;40800;52.704;6.398;2023-10-09T05:18:32;49.10;;;44.22;;
54897;SDS011;40800;52.704;6.398;2023-10-09T05:21:06;47.67;;;42.88;;
54897;SDS011;40800;52.704;6.398;2023-10-09T05:23:38;49.05;;;43.83;;
54897;SDS011;40800;52.704;6.398;2023-10-09T05:26:14;48.95;;;43.90;;
54897;SDS011;40800;52.704;6.398;2023-10-09T05:28:58;48.42;;;43.60;;
54897;SDS011;40800;52.704;6.398;2023-10-09T05:31:24;48.38;;;43.10;;
54897;SDS011;40800;52.704;6.398;2023-10-09T05:34:08;49.22;;;43.72;;
54897;SDS011;40800;52.704;6.398;2023-10-09T05:36:44;47.13;;;42.17;;
54897;SDS011;40800;52.704;6.398;2023-10-09T05:39:12;46.35;;;42.00;;
54897;SDS011;40800;52.704;6.398;2023-10-09T05:41:46;47.30;;;42.65;;
54897;SDS011;40800;52.704;6.398;2023-10-09T05:44:17;47.38;;;42.10;;
54897;SDS011;40800;52.704;6.398;2023-10-09T05:47:01;45.70;;;41.22;;
54897;SDS011;40800;52.704;6.398;2023-10-09T05:49:46;44.05;;;39.75;;
54897;SDS011;40800;52.704;6.398;2023-10-09T05:52:15;43.58;;;39.45;;
54897;SDS011;40800;52.704;6.398;2023-10-09T05:54:59;43.38;;;39.28;;
54897;SDS011;40800;52.704;6.398;2023-10-09T05:57:43;42.97;;;38.90;;
54897;SDS011;40800;52.704;6.398;2023-10-09T06:03:05;44.15;;;39.63;;
54897;SDS011;40800;52.704;6.398;2023-10-09T06:05:52;43.05;;;38.45;;
54897;SDS011;40800;52.704;6.398;2023-10-09T06:08:19;44.30;;;38.35;;
54897;SDS011;40800;52.704;6.398;2023-10-09T06:11:23;42.58;;;38.17;;
54897;SDS011;40800;52.704;6.398;2023-10-09T06:13:59;41.88;;;38.10;;
54897;SDS011;40800;52.704;6.398;2023-10-09T06:16:32;41.15;;;37.50;;
54897;SDS011;40800;52.704;6.398;2023-10-09T06:19:10;41.05;;;37.20;;
54897;SDS011;40800;52.704;6.398;2023-10-09T06:21:40;40.63;;;37.05;;
54897;SDS011;40800;52.704;6.398;2023-10-09T06:26:45;36.90;;;33.72;;
54897;SDS011;40800;52.704;6.398;2023-10-09T06:29:23;35.53;;;32.35;;
54897;SDS011;40800;52.704;6.398;2023-10-09T06:34:43;36.72;;;33.53;;
54897;SDS011;40800;52.704;6.398;2023-10-09T06:37:24;37.25;;;34.03;;
54897;SDS011;40800;52.704;6.398;2023-10-09T06:42:35;35.78;;;32.70;;
54897;SDS011;40800;52.704;6.398;2023-10-09T06:45:04;35.70;;;32.47;;
54897;SDS011;40800;52.704;6.398;2023-10-09T06:47:33;35.80;;;32.63;;
54897;SDS011;40800;52.704;6.398;2023-10-09T06:50:19;34.65;;;31.75;;
54897;SDS011;40800;52.704;6.398;2023-10-09T06:52:47;34.22;;;31.33;;
54897;SDS011;40800;52.704;6.398;2023-10-09T06:55:23;34.97;;;31.80;;
54897;SDS011;40800;52.704;6.398;2023-10-09T06:58:00;33.47;;;30.42;;
54897;SDS011;40800;52.704;6.398;2023-10-09T07:00:29;34.08;;;30.92;;
54897;SDS011;40800;52.704;6.398;2023-10-09T07:03:13;33.88;;;30.80;;
54897;SDS011;40800;52.704;6.398;2023-10-09T07:05:42;32.78;;;30.08;;
54897;SDS011;40800;52.704;6.398;2023-10-09T07:08:30;33.80;;;30.67;;
54897;SDS011;40800;52.704;6.398;2023-10-09T07:11:05;33.20;;;30.35;;
54897;SDS011;40800;52.704;6.398;2023-10-09T07:13:46;33.08;;;30.02;;
54897;SDS011;40800;52.704;6.398;2023-10-09T07:16:19;32.65;;;29.60;;
54897;SDS011;40800;52.704;6.398;2023-10-09T07:19:03;32.88;;;30.25;;
54897;SDS011;40800;52.704;6.398;2023-10-09T07:21:49;31.63;;;29.05;;
54897;SDS011;40800;52.704;6.398;2023-10-09T07:24:19;32.17;;;29.25;;
54897;SDS011;40800;52.704;6.398;2023-10-09T07:26:50;32.05;;;29.45;;
54897;SDS011;40800;52.704;6.398;2023-10-09T07:29:19;32.33;;;29.67;;
54897;SDS011;40800;52.704;6.398;2023-10-09T07:31:51;31.92;;;29.23;;
54897;SDS011;40800;52.704;6.398;2023-10-09T07:34:23;32.15;;;29.38;;
54897;SDS011;40800;52.704;6.398;2023-10-09T07:36:55;31.85;;;29.35;;
54897;SDS011;40800;52.704;6.398;2023-10-09T07:39:21;32.28;;;29.67;;
54897;SDS011;40800;52.704;6.398;2023-10-09T07:41:48;32.72;;;29.85;;
54897;SDS011;40800;52.704;6.398;2023-10-09T07:44:40;32.35;;;29.77;;
54897;SDS011;40800;52.704;6.398;2023-10-09T07:47:18;32.47;;;29.67;;
54897;SDS011;40800;52.704;6.398;2023-10-09T07:50:09;33.25;;;30.65;;
54897;SDS011;40800;52.704;6.398;2023-10-09T07:52:46;32.03;;;29.38;;
54897;SDS011;40800;52.704;6.398;2023-10-09T07:55:11;32.65;;;29.90;;
54897;SDS011;40800;52.704;6.398;2023-10-09T07:57:51;32.83;;;30.05;;
54897;SDS011;40800;52.704;6.398;2023-10-09T08:00:17;32.47;;;29.70;;
54897;SDS011;40800;52.704;6.398;2023-10-09T08:03:01;32.30;;;29.77;;
54897;SDS011;40800;52.704;6.398;2023-10-09T08:05:48;32.67;;;29.40;;
54897;SDS011;40800;52.704;6.398;2023-10-09T08:08:17;32.65;;;29.95;;
54897;SDS011;40800;52.704;6.398;2023-10-09T08:11:03;33.42;;;30.73;;
54897;SDS011;40800;52.704;6.398;2023-10-09T08:13:47;31.65;;;29.05;;
54897;SDS011;40800;52.704;6.398;2023-10-09T08:16:23;31.02;;;28.38;;
54897;SDS011;40800;52.704;6.398;2023-10-09T08:18:49;31.00;;;28.48;;
54897;SDS011;40800;52.704;6.398;2023-10-09T08:21:18;31.20;;;28.40;;
54897;SDS011;40800;52.704;6.398;2023-10-09T08:24:07;31.02;;;28.33;;
54897;SDS011;40800;52.704;6.398;2023-10-09T08:26:53;31.92;;;29.02;;
54897;SDS011;40800;52.704;6.398;2023-10-09T08:29:38;31.85;;;29.23;;
54897;SDS011;40800;52.704;6.398;2023-10-09T08:32:11;32.00;;;29.15;;
54897;SDS011;40800;52.704;6.398;2023-10-09T08:35:03;30.67;;;28.20;;
54897;SDS011;40800;52.704;6.398;2023-10-09T08:37:44;30.08;;;27.35;;
54897;SDS011;40800;52.704;6.398;2023-10-09T08:40:13;30.20;;;27.60;;
54897;SDS011;40800;52.704;6.398;2023-10-09T08:42:38;30.33;;;27.67;;
54897;SDS011;40800;52.704;6.398;2023-10-09T08:45:04;30.25;;;27.45;;
54897;SDS011;40800;52.704;6.398;2023-10-09T08:47:31;30.90;;;27.85;;
54897;SDS011;40800;52.704;6.398;2023-10-09T08:49:58;29.85;;;27.40;;
54897;SDS011;40800;52.704;6.398;2023-10-09T08:52:24;30.23;;;27.70;;
54897;SDS011;40800;52.704;6.398;2023-10-09T08:54:50;30.77;;;27.80;;
54897;SDS011;40800;52.704;6.398;2023-10-09T08:57:16;31.50;;;28.65;;
54897;SDS011;40800;52.704;6.398;2023-10-09T08:59:44;30.15;;;27.38;;
54897;SDS011;40800;52.704;6.398;2023-10-09T09:02:09;28.90;;;26.50;;
54897;SDS011;40800;52.704;6.398;2023-10-09T09:04:37;29.52;;;26.95;;
54897;SDS011;40800;52.704;6.398;2023-10-09T09:07:04;30.45;;;27.65;;
54897;SDS011;40800;52.704;6.398;2023-10-09T09:09:59;29.08;;;26.58;;
54897;SDS011;40800;52.704;6.398;2023-10-09T09:12:46;30.42;;;27.58;;
54897;SDS011;40800;52.704;6.398;2023-10-09T09:15:18;30.08;;;27.35;;
54897;SDS011;40800;52.704;6.398;2023-10-09T09:17:51;30.73;;;27.70;;
54897;SDS011;40800;52.704;6.398;2023-10-09T09:20:35;30.60;;;27.90;;
54897;SDS011;40800;52.704;6.398;2023-10-09T09:23:10;31.45;;;28.50;;
54897;SDS011;40800;52.704;6.398;2023-10-09T09:28:09;31.20;;;28.65;;
54897;SDS011;40800;52.704;6.398;2023-10-09T09:30:37;32.15;;;29.25;;
54897;SDS011;40800;52.704;6.398;2023-10-09T09:33:24;31.23;;;28.27;;
54897;SDS011;40800;52.704;6.398;2023-10-09T09:36:04;30.88;;;28.27;;
54897;SDS011;40800;52.704;6.398;2023-10-09T09:38:32;31.38;;;28.33;;
54897;SDS011;40800;52.704;6.398;2023-10-09T09:41:16;31.20;;;28.38;;
54897;SDS011;40800;52.704;6.398;2023-10-09T09:43:58;31.70;;;28.83;;
54897;SDS011;40800;52.704;6.398;2023-10-09T09:46:33;29.30;;;26.92;;
54897;SDS011;40800;52.704;6.398;2023-10-09T09:49:03;29.67;;;27.17;;
54897;SDS011;40800;52.704;6.398;2023-10-09T09:51:41;30.60;;;27.80;;
54897;SDS011;40800;52.704;6.398;2023-10-09T09:54:11;30.05;;;27.25;;
54897;SDS011;40800;52.704;6.398;2023-10-09T09:56:40;30.35;;;27.95;;
54897;SDS011;40800;52.704;6.398;2023-10-09T09:59:15;30.90;;;27.55;;
54897;SDS011;40800;52.704;6.398;2023-10-09T10:01:47;31.00;;;27.85;;
54897;SDS011;40800;52.704;6.398;2023-10-09T10:04:22;30.80;;;28.20;;
54897;SDS011;40800;52.704;6.398;2023-10-09T10:06:53;28.60;;;26.13;;
54897;SDS011;40800;52.704;6.398;2023-10-09T10:12:04;28.80;;;26.30;;
54897;SDS011;40800;52.704;6.398;2023-10-09T10:17:24;29.38;;;26.88;;
54897;SDS011;40800;52.704;6.398;2023-10-09T10:20:08;29.05;;;26.15;;
54897;SDS011;40800;52.704;6.398;2023-10-09T10:22:39;27.98;;;25.70;;
54897;SDS011;40800;52.704;6.398;2023-10-09T10:25:10;27.73;;;25.25;;
54897;SDS011;40800;52.704;6.398;2023-10-09T10:28:16;27.42;;;24.98;;
54897;SDS011;40800;52.704;6.398;2023-10-09T10:30:53;27.75;;;25.02;;
54897;SDS011;40800;52.704;6.398;2023-10-09T10:33:25;27.00;;;24.55;;
54897;SDS011;40800;52.704;6.398;2023-10-09T10:35:52;26.73;;;24.25;;
54897;SDS011;40800;52.704;6.398;2023-10-09T10:41:15;27.33;;;24.70;;
54897;SDS011;40800;52.704;6.398;2023-10-09T10:43:43;26.40;;;24.08;;
54897;SDS011;40800;52.704;6.398;2023-10-09T10:46:15;26.98;;;24.48;;
54897;SDS011;40800;52.704;6.398;2023-10-09T10:49:10;26.63;;;24.02;;
54897;SDS011;40800;52.704;6.398;2023-10-09T10:51:36;25.40;;;23.15;;
54897;SDS011;40800;52.704;6.398;2023-10-09T10:54:05;23.83;;;22.02;;
54897;SDS011;40800;52.704;6.398;2023-10-09T10:56:50;25.23;;;23.00;;
54897;SDS011;40800;52.704;6.398;2023-10-09T10:59:16;24.42;;;22.13;;
54897;SDS011;40800;52.704;6.398;2023-10-09T11:01:48;23.85;;;21.88;;
54897;SDS011;40800;52.704;6.398;2023-10-09T11:04:27;23.95;;;21.67;;
54897;SDS011;40800;52.704;6.398;2023-10-09T11:07:10;22.48;;;20.48;;
54897;SDS011;40800;52.704;6.398;2023-10-09T11:12:28;21.70;;;19.90;;
54897;SDS011;40800;52.704;6.398;2023-10-09T11:15:08;22.58;;;20.67;;
54897;SDS011;40800;52.704;6.398;2023-10-09T11:17:58;22.05;;;20.20;;
54897;SDS011;40800;52.704;6.398;2023-10-09T11:20:59;22.73;;;20.42;;
54897;SDS011;40800;52.704;6.398;2023-10-09T11:23:28;23.63;;;21.67;;
54897;SDS011;40800;52.704;6.398;2023-10-09T11:26:02;22.63;;;20.52;;
54897;SDS011;40800;52.704;6.398;2023-10-09T11:34:22;23.98;;;21.77;;
54897;SDS011;40800;52.704;6.398;2023-10-09T11:36:57;24.10;;;21.92;;
54897;SDS011;40800;52.704;6.398;2023-10-09T11:39:25;24.55;;;22.25;;
54897;SDS011;40800;52.704;6.398;2023-10-09T11:42:07;25.17;;;22.77;;
54897;SDS011;40800;52.704;6.398;2023-10-09T11:44:39;24.70;;;22.33;;
54897;SDS011;40800;52.704;6.398;2023-10-09T11:47:09;24.13;;;22.03;;
54897;SDS011;40800;52.704;6.398;2023-10-09T11:49:57;23.48;;;21.27;;
54897;SDS011;40800;52.704;6.398;2023-10-09T11:52:55;22.25;;;20.35;;
54897;SDS011;40800;52.704;6.398;2023-10-09T11:55:44;21.27;;;19.33;;
54897;SDS011;40800;52.704;6.398;2023-10-09T11:58:13;22.85;;;20.58;;
54897;SDS011;40800;52.704;6.398;2023-10-09T12:00:40;22.65;;;20.80;;
54897;SDS011;40800;52.704;6.398;2023-10-09T12:03:12;21.35;;;19.58;;
54897;SDS011;40800;52.704;6.398;2023-10-09T12:05:39;21.20;;;19.52;;
54897;SDS011;40800;52.704;6.398;2023-10-09T12:08:09;21.45;;;19.75;;
54897;SDS011;40800;52.704;6.398;2023-10-09T12:10:40;20.70;;;19.02;;
54897;SDS011;40800;52.704;6.398;2023-10-09T12:13:06;21.60;;;19.50;;
54897;SDS011;40800;52.704;6.398;2023-10-09T12:15:32;22.00;;;20.15;;
54897;SDS011;40800;52.704;6.398;2023-10-09T12:18:07;21.45;;;19.60;;
54897;SDS011;40800;52.704;6.398;2023-10-09T12:20:40;21.83;;;19.98;;
54897;SDS011;40800;52.704;6.398;2023-10-09T12:23:06;22.42;;;20.33;;
54897;SDS011;40800;52.704;6.398;2023-10-09T12:25:33;22.48;;;20.35;;
54897;SDS011;40800;52.704;6.398;2023-10-09T12:28:00;22.80;;;20.50;;
54897;SDS011;40800;52.704;6.398;2023-10-09T12:30:28;22.25;;;20.33;;
54897;SDS011;40800;52.704;6.398;2023-10-09T12:32:54;22.05;;;20.13;;
54897;SDS011;40800;52.704;6.398;2023-10-09T12:35:22;22.10;;;20.10;;
54897;SDS011;40800;52.704;6.398;2023-10-09T12:37:50;21.38;;;19.58;;
54897;SDS011;40800;52.704;6.398;2023-10-09T12:40:16;22.35;;;20.38;;
54897;SDS011;40800;52.704;6.398;2023-10-09T12:42:49;21.10;;;19.17;;
54897;SDS011;40800;52.704;6.398;2023-10-09T12:45:18;21.05;;;19.25;;
54897;SDS011;40800;52.704;6.398;2023-10-09T12:47:51;21.25;;;19.40;;
54897;SDS011;40800;52.704;6.398;2023-10-09T12:50:17;20.20;;;18.52;;
54897;SDS011;40800;52.704;6.398;2023-10-09T12:52:52;21.23;;;19.40;;
54897;SDS011;40800;52.704;6.398;2023-10-09T12:55:21;20.83;;;18.95;;
54897;SDS011;40800;52.704;6.398;2023-10-09T12:57:56;20.85;;;19.10;;
54897;SDS011;40800;52.704;6.398;2023-10-09T13:00:26;21.08;;;19.25;;
54897;SDS011;40800;52.704;6.398;2023-10-09T13:02:52;20.70;;;18.80;;
54897;SDS011;40800;52.704;6.398;2023-10-09T13:05:17;20.73;;;18.98;;
54897;SDS011;40800;52.704;6.398;2023-10-09T13:07:52;20.67;;;18.80;;
54897;SDS011;40800;52.704;6.398;2023-10-09T13:10:21;20.77;;;19.02;;
54897;SDS011;40800;52.704;6.398;2023-10-09T13:12:49;20.20;;;18.40;;
54897;SDS011;40800;52.704;6.398;2023-10-09T13:15:20;19.63;;;17.80;;
54897;SDS011;40800;52.704;6.398;2023-10-09T13:17:46;18.67;;;17.30;;
54897;SDS011;40800;52.704;6.398;2023-10-09T13:20:12;19.17;;;17.40;;
54897;SDS011;40800;52.704;6.398;2023-10-09T13:22:40;19.20;;;17.50;;
54897;SDS011;40800;52.704;6.398;2023-10-09T13:25:10;18.02;;;16.63;;
54897;SDS011;40800;52.704;6.398;2023-10-09T13:27:49;19.55;;;17.75;;
54897;SDS011;40800;52.704;6.398;2023-10-09T13:30:18;18.77;;;17.23;;
54897;SDS011;40800;52.704;6.398;2023-10-09T13:32:51;18.67;;;17.23;;
54897;SDS011;40800;52.704;6.398;2023-10-09T13:35:19;18.50;;;17.00;;
54897;SDS011;40800;52.704;6.398;2023-10-09T13:37:52;18.00;;;16.48;;
54897;SDS011;40800;52.704;6.398;2023-10-09T13:40:21;18.30;;;16.83;;
54897;SDS011;40800;52.704;6.398;2023-10-09T13:42:54;18.70;;;16.88;;
54897;SDS011;40800;52.704;6.398;2023-10-09T13:45:27;19.10;;;17.30;;
54897;SDS011;40800;52.704;6.398;2023-10-09T13:47:56;18.15;;;16.70;;
54897;SDS011;40800;52.704;6.398;2023-10-09T13:50:25;18.58;;;16.70;;
54897;SDS011;40800;52.704;6.398;2023-10-09T13:53:07;18.95;;;17.20;;
54897;SDS011;40800;52.704;6.398;2023-10-09T13:55:38;18.50;;;17.00;;
54897;SDS011;40800;52.704;6.398;2023-10-09T13:58:08;19.25;;;17.60;;
54897;SDS011;40800;52.704;6.398;2023-10-09T14:00:45;18.80;;;16.90;;
54897;SDS011;40800;52.704;6.398;2023-10-09T14:03:14;19.42;;;17.60;;
54897;SDS011;40800;52.704;6.398;2023-10-09T14:05:44;18.58;;;17.08;;
54897;SDS011;40800;52.704;6.398;2023-10-09T14:08:22;18.50;;;16.90;;
54897;SDS011;40800;52.704;6.398;2023-10-09T14:10:51;18.40;;;16.90;;
54897;SDS011;40800;52.704;6.398;2023-10-09T14:13:17;18.27;;;16.73;;
54897;SDS011;40800;52.704;6.398;2023-10-09T14:15:51;71.28;;;19.90;;
54897;SDS011;40800;52.704;6.398;2023-10-09T14:18:19;34.70;;;17.70;;
54897;SDS011;40800;52.704;6.398;2023-10-09T14:20:45;24.52;;;17.00;;
54897;SDS011;40800;52.704;6.398;2023-10-09T14:23:11;21.25;;;16.38;;
54897;SDS011;40800;52.704;6.398;2023-10-09T14:25:45;17.60;;;16.10;;
54897;SDS011;40800;52.704;6.398;2023-10-09T14:28:14;17.42;;;15.82;;
54897;SDS011;40800;52.704;6.398;2023-10-09T14:30:43;17.00;;;15.27;;
54897;SDS011;40800;52.704;6.398;2023-10-09T14:33:11;16.38;;;14.98;;
54897;SDS011;40800;52.704;6.398;2023-10-09T14:35:40;16.30;;;14.90;;
54897;SDS011;40800;52.704;6.398;2023-10-09T14:38:07;16.42;;;14.90;;
54897;SDS011;40800;52.704;6.398;2023-10-09T14:40:41;16.30;;;15.00;;
54897;SDS011;40800;52.704;6.398;2023-10-09T14:43:09;17.65;;;16.08;;
54897;SDS011;40800;52.704;6.398;2023-10-09T14:45:46;17.85;;;16.35;;
54897;SDS011;40800;52.704;6.398;2023-10-09T14:48:18;17.52;;;16.02;;
54897;SDS011;40800;52.704;6.398;2023-10-09T14:50:49;18.70;;;17.00;;
54897;SDS011;40800;52.704;6.398;2023-10-09T14:53:18;18.80;;;16.95;;
54897;SDS011;40800;52.704;6.398;2023-10-09T14:55:55;18.40;;;16.85;;
54897;SDS011;40800;52.704;6.398;2023-10-09T14:58:21;18.52;;;16.90;;
54897;SDS011;40800;52.704;6.398;2023-10-09T15:00:50;18.80;;;17.20;;
54897;SDS011;40800;52.704;6.398;2023-10-09T15:03:19;18.75;;;17.15;;
54897;SDS011;40800;52.704;6.398;2023-10-09T15:05:45;18.50;;;17.00;;
54897;SDS011;40800;52.704;6.398;2023-10-09T15:08:11;19.05;;;17.38;;
54897;SDS011;40800;52.704;6.398;2023-10-09T15:13:31;19.48;;;17.85;;
54897;SDS011;40800;52.704;6.398;2023-10-09T15:15:57;20.15;;;18.33;;
54897;SDS011;40800;52.704;6.398;2023-10-09T15:18:24;20.55;;;18.63;;
54897;SDS011;40800;52.704;6.398;2023-10-09T15:20:50;20.40;;;18.75;;
54897;SDS011;40800;52.704;6.398;2023-10-09T15:23:16;20.60;;;18.73;;
54897;SDS011;40800;52.704;6.398;2023-10-09T15:25:44;21.13;;;18.92;;
54897;SDS011;40800;52.704;6.398;2023-10-09T15:28:14;20.98;;;19.13;;
54897;SDS011;40800;52.704;6.398;2023-10-09T15:30:41;20.75;;;18.85;;
54897;SDS011;40800;52.704;6.398;2023-10-09T15:33:07;20.67;;;18.92;;
54897;SDS011;40800;52.704;6.398;2023-10-09T15:35:35;21.38;;;19.58;;